sensor_id;sensor_type;location;lat;lon;timestamp;temperature;humidity
52030;DHT22;38043;53.224;6.580;2023-07-09T00:02:01;22.10;94.60
52030;DHT22;38043;53.224;6.580;2023-07-09T00:04:26;22.00;94.60
52030;DHT22;38043;53.224;6.580;2023-07-09T00:06:55;22.00;94.70
52030;DHT22;38043;53.224;6.580;2023-07-09T00:09:23;22.00;94.80
52030;DHT22;38043;53.224;6.580;2023-07-09T00:11:49;22.00;94.90
52030;DHT22;38043;53.224;6.580;2023-07-09T00:14:16;21.90;95.00
52030;DHT22;38043;53.224;6.580;2023-07-09T00:16:43;21.90;95.20
52030;DHT22;38043;53.224;6.580;2023-07-09T00:19:18;21.90;95.10
52030;DHT22;38043;53.224;6.580;2023-07-09T00:21:46;21.90;95.40
52030;DHT22;38043;53.224;6.580;2023-07-09T00:24:12;21.80;95.50
52030;DHT22;38043;53.224;6.580;2023-07-09T00:26:39;21.80;95.70
52030;DHT22;38043;53.224;6.580;2023-07-09T00:29:09;21.80;95.80
52030;DHT22;38043;53.224;6.580;2023-07-09T00:31:36;21.80;96.10
52030;DHT22;38043;53.224;6.580;2023-07-09T00:34:04;21.70;95.90
52030;DHT22;38043;53.224;6.580;2023-07-09T00:36:30;21.70;96.00
52030;DHT22;38043;53.224;6.580;2023-07-09T00:38:59;21.70;96.10
52030;DHT22;38043;53.224;6.580;2023-07-09T00:41:32;21.60;96.10
52030;DHT22;38043;53.224;6.580;2023-07-09T00:49:34;21.60;96.50
52030;DHT22;38043;53.224;6.580;2023-07-09T00:52:12;21.60;96.60
52030;DHT22;38043;53.224;6.580;2023-07-09T00:54:43;21.60;96.80
52030;DHT22;38043;53.224;6.580;2023-07-09T00:57:16;21.50;96.90
52030;DHT22;38043;53.224;6.580;2023-07-09T00:59:45;21.50;97.10
52030;DHT22;38043;53.224;6.580;2023-07-09T01:02:12;21.50;97.10
52030;DHT22;38043;53.224;6.580;2023-07-09T01:04:37;21.40;97.20
52030;DHT22;38043;53.224;6.580;2023-07-09T01:07:04;21.40;97.30
52030;DHT22;38043;53.224;6.580;2023-07-09T01:09:30;21.40;97.40
52030;DHT22;38043;53.224;6.580;2023-07-09T01:11:58;21.40;97.50
52030;DHT22;38043;53.224;6.580;2023-07-09T01:14:28;21.40;97.60
52030;DHT22;38043;53.224;6.580;2023-07-09T01:16:59;21.30;97.60
52030;DHT22;38043;53.224;6.580;2023-07-09T01:19:27;21.30;97.80
52030;DHT22;38043;53.224;6.580;2023-07-09T01:21:58;21.30;97.80
52030;DHT22;38043;53.224;6.580;2023-07-09T01:27:28;21.30;98.30
52030;DHT22;38043;53.224;6.580;2023-07-09T01:29:55;21.30;98.20
52030;DHT22;38043;53.224;6.580;2023-07-09T01:32:22;21.20;98.30
52030;DHT22;38043;53.224;6.580;2023-07-09T01:34:52;21.30;98.40
52030;DHT22;38043;53.224;6.580;2023-07-09T01:37:23;21.10;98.50
52030;DHT22;38043;53.224;6.580;2023-07-09T01:39:50;21.20;98.60
52030;DHT22;38043;53.224;6.580;2023-07-09T01:42:17;21.10;98.80
52030;DHT22;38043;53.224;6.580;2023-07-09T01:44:44;21.10;99.00
52030;DHT22;38043;53.224;6.580;2023-07-09T01:47:11;21.00;99.20
52030;DHT22;38043;53.224;6.580;2023-07-09T01:49:37;21.00;99.70
52030;DHT22;38043;53.224;6.580;2023-07-09T01:52:06;21.00;99.60
52030;DHT22;38043;53.224;6.580;2023-07-09T01:54:34;20.90;99.50
52030;DHT22;38043;53.224;6.580;2023-07-09T01:57:20;20.90;99.60
52030;DHT22;38043;53.224;6.580;2023-07-09T01:59:49;20.90;99.70
52030;DHT22;38043;53.224;6.580;2023-07-09T02:02:15;20.90;99.60
52030;DHT22;38043;53.224;6.580;2023-07-09T02:04:49;20.90;99.60
52030;DHT22;38043;53.224;6.580;2023-07-09T02:07:15;20.90;99.60
52030;DHT22;38043;53.224;6.580;2023-07-09T02:09:41;20.90;99.70
52030;DHT22;38043;53.224;6.580;2023-07-09T02:12:07;20.80;99.80
52030;DHT22;38043;53.224;6.580;2023-07-09T02:14:33;20.90;99.80
52030;DHT22;38043;53.224;6.580;2023-07-09T02:16:58;20.80;99.90
52030;DHT22;38043;53.224;6.580;2023-07-09T02:19:24;20.70;99.90
52030;DHT22;38043;53.224;6.580;2023-07-09T02:21:50;20.70;99.90
52030;DHT22;38043;53.224;6.580;2023-07-09T02:24:15;20.70;99.90
52030;DHT22;38043;53.224;6.580;2023-07-09T02:26:41;20.60;99.90
52030;DHT22;38043;53.224;6.580;2023-07-09T02:29:07;20.60;99.90
52030;DHT22;38043;53.224;6.580;2023-07-09T02:31:33;20.60;99.90
52030;DHT22;38043;53.224;6.580;2023-07-09T02:33:59;20.60;99.90
52030;DHT22;38043;53.224;6.580;2023-07-09T02:36:25;20.60;99.90
52030;DHT22;38043;53.224;6.580;2023-07-09T02:38:51;20.50;99.90
52030;DHT22;38043;53.224;6.580;2023-07-09T02:41:16;20.50;99.90
52030;DHT22;38043;53.224;6.580;2023-07-09T02:43:42;20.50;99.90
52030;DHT22;38043;53.224;6.580;2023-07-09T02:46:07;20.50;99.90
52030;DHT22;38043;53.224;6.580;2023-07-09T02:48:33;20.40;99.90
52030;DHT22;38043;53.224;6.580;2023-07-09T02:50:59;20.40;99.90
52030;DHT22;38043;53.224;6.580;2023-07-09T02:53:25;20.40;99.90
52030;DHT22;38043;53.224;6.580;2023-07-09T02:55:51;20.40;99.90
52030;DHT22;38043;53.224;6.580;2023-07-09T02:58:16;20.40;99.90
52030;DHT22;38043;53.224;6.580;2023-07-09T03:00:42;20.30;99.90
52030;DHT22;38043;53.224;6.580;2023-07-09T03:03:08;20.30;99.90
52030;DHT22;38043;53.224;6.580;2023-07-09T03:05:33;20.30;99.90
52030;DHT22;38043;53.224;6.580;2023-07-09T03:07:59;20.30;99.90
52030;DHT22;38043;53.224;6.580;2023-07-09T03:10:27;20.30;99.90
52030;DHT22;38043;53.224;6.580;2023-07-09T03:12:53;20.20;99.90
52030;DHT22;38043;53.224;6.580;2023-07-09T03:15:19;20.20;99.90
52030;DHT22;38043;53.224;6.580;2023-07-09T03:17:44;20.20;99.90
52030;DHT22;38043;53.224;6.580;2023-07-09T03:20:11;20.20;99.90
52030;DHT22;38043;53.224;6.580;2023-07-09T03:22:36;20.20;99.90
52030;DHT22;38043;53.224;6.580;2023-07-09T03:25:02;20.10;99.90
52030;DHT22;38043;53.224;6.580;2023-07-09T03:27:28;20.10;99.90
52030;DHT22;38043;53.224;6.580;2023-07-09T03:29:53;20.10;99.90
52030;DHT22;38043;53.224;6.580;2023-07-09T03:32:19;20.10;99.90
52030;DHT22;38043;53.224;6.580;2023-07-09T03:34:44;20.10;99.90
52030;DHT22;38043;53.224;6.580;2023-07-09T03:37:10;20.00;99.90
52030;DHT22;38043;53.224;6.580;2023-07-09T03:39:36;20.00;99.90
52030;DHT22;38043;53.224;6.580;2023-07-09T03:42:01;20.00;99.90
52030;DHT22;38043;53.224;6.580;2023-07-09T03:44:27;20.00;99.90
52030;DHT22;38043;53.224;6.580;2023-07-09T03:46:53;20.00;99.90
52030;DHT22;38043;53.224;6.580;2023-07-09T03:49:18;20.00;99.90
52030;DHT22;38043;53.224;6.580;2023-07-09T03:51:44;20.00;99.90
52030;DHT22;38043;53.224;6.580;2023-07-09T03:54:10;20.00;99.90
52030;DHT22;38043;53.224;6.580;2023-07-09T03:56:35;20.10;99.90
52030;DHT22;38043;53.224;6.580;2023-07-09T03:59:02;20.10;99.90
52030;DHT22;38043;53.224;6.580;2023-07-09T04:01:28;20.10;99.90
52030;DHT22;38043;53.224;6.580;2023-07-09T04:03:53;20.10;99.90
52030;DHT22;38043;53.224;6.580;2023-07-09T04:06:19;20.10;99.90
52030;DHT22;38043;53.224;6.580;2023-07-09T04:08:45;20.10;99.90
52030;DHT22;38043;53.224;6.580;2023-07-09T04:11:10;20.20;99.90
52030;DHT22;38043;53.224;6.580;2023-07-09T04:13:36;20.20;99.90
52030;DHT22;38043;53.224;6.580;2023-07-09T04:16:02;20.20;99.90
52030;DHT22;38043;53.224;6.580;2023-07-09T04:18:27;20.20;99.90
52030;DHT22;38043;53.224;6.580;2023-07-09T04:20:53;20.20;99.90
52030;DHT22;38043;53.224;6.580;2023-07-09T04:23:19;20.30;99.90
52030;DHT22;38043;53.224;6.580;2023-07-09T04:25:45;20.30;99.90
52030;DHT22;38043;53.224;6.580;2023-07-09T04:28:11;20.30;99.90
52030;DHT22;38043;53.224;6.580;2023-07-09T04:30:37;20.30;99.90
52030;DHT22;38043;53.224;6.580;2023-07-09T04:33:02;20.30;99.90
52030;DHT22;38043;53.224;6.580;2023-07-09T04:35:28;20.40;99.90
52030;DHT22;38043;53.224;6.580;2023-07-09T04:37:54;20.40;99.90
52030;DHT22;38043;53.224;6.580;2023-07-09T04:40:20;20.40;99.90
52030;DHT22;38043;53.224;6.580;2023-07-09T04:42:46;20.50;99.90
52030;DHT22;38043;53.224;6.580;2023-07-09T04:45:12;20.50;99.90
52030;DHT22;38043;53.224;6.580;2023-07-09T04:47:38;20.50;99.90
52030;DHT22;38043;53.224;6.580;2023-07-09T04:50:05;20.50;99.90
52030;DHT22;38043;53.224;6.580;2023-07-09T04:52:31;20.60;99.90
52030;DHT22;38043;53.224;6.580;2023-07-09T04:54:57;20.60;99.90
52030;DHT22;38043;53.224;6.580;2023-07-09T04:59:50;20.70;99.90
52030;DHT22;38043;53.224;6.580;2023-07-09T05:02:16;20.70;99.90
52030;DHT22;38043;53.224;6.580;2023-07-09T05:04:41;20.80;99.90
52030;DHT22;38043;53.224;6.580;2023-07-09T05:07:07;20.80;99.90
52030;DHT22;38043;53.224;6.580;2023-07-09T05:09:33;20.80;99.90
52030;DHT22;38043;53.224;6.580;2023-07-09T05:11:59;20.90;99.90
52030;DHT22;38043;53.224;6.580;2023-07-09T05:14:27;21.00;99.90
52030;DHT22;38043;53.224;6.580;2023-07-09T05:16:53;21.00;99.90
52030;DHT22;38043;53.224;6.580;2023-07-09T05:19:19;21.10;99.90
52030;DHT22;38043;53.224;6.580;2023-07-09T05:21:45;21.10;99.90
52030;DHT22;38043;53.224;6.580;2023-07-09T05:24:10;21.20;99.90
52030;DHT22;38043;53.224;6.580;2023-07-09T05:26:36;21.30;99.90
52030;DHT22;38043;53.224;6.580;2023-07-09T05:29:03;21.40;99.90
52030;DHT22;38043;53.224;6.580;2023-07-09T05:31:30;21.50;99.90
52030;DHT22;38043;53.224;6.580;2023-07-09T05:33:56;21.60;99.90
52030;DHT22;38043;53.224;6.580;2023-07-09T05:36:21;21.70;99.90
52030;DHT22;38043;53.224;6.580;2023-07-09T05:38:47;21.80;99.90
52030;DHT22;38043;53.224;6.580;2023-07-09T05:41:13;21.90;99.90
52030;DHT22;38043;53.224;6.580;2023-07-09T05:43:45;21.90;99.90
52030;DHT22;38043;53.224;6.580;2023-07-09T05:46:12;22.10;99.90
52030;DHT22;38043;53.224;6.580;2023-07-09T05:48:38;22.20;99.90
52030;DHT22;38043;53.224;6.580;2023-07-09T05:51:04;22.20;99.90
52030;DHT22;38043;53.224;6.580;2023-07-09T05:53:30;22.40;99.90
52030;DHT22;38043;53.224;6.580;2023-07-09T05:55:57;22.50;99.90
52030;DHT22;38043;53.224;6.580;2023-07-09T05:58:23;22.70;99.90
52030;DHT22;38043;53.224;6.580;2023-07-09T06:00:53;22.90;99.90
52030;DHT22;38043;53.224;6.580;2023-07-09T06:03:22;23.00;99.90
52030;DHT22;38043;53.224;6.580;2023-07-09T06:05:48;23.00;99.90
52030;DHT22;38043;53.224;6.580;2023-07-09T06:08:19;23.10;99.90
52030;DHT22;38043;53.224;6.580;2023-07-09T06:10:53;23.10;99.80
52030;DHT22;38043;53.224;6.580;2023-07-09T06:13:19;23.10;99.70
52030;DHT22;38043;53.224;6.580;2023-07-09T06:15:47;23.20;99.60
52030;DHT22;38043;53.224;6.580;2023-07-09T06:18:13;23.20;99.60
52030;DHT22;38043;53.224;6.580;2023-07-09T06:20:38;23.20;99.70
52030;DHT22;38043;53.224;6.580;2023-07-09T06:23:04;23.10;99.70
52030;DHT22;38043;53.224;6.580;2023-07-09T06:25:30;23.30;99.70
52030;DHT22;38043;53.224;6.580;2023-07-09T06:27:57;23.30;99.70
52030;DHT22;38043;53.224;6.580;2023-07-09T06:30:23;23.40;99.90
52030;DHT22;38043;53.224;6.580;2023-07-09T06:32:49;23.40;99.80
52030;DHT22;38043;53.224;6.580;2023-07-09T06:35:14;23.60;99.80
52030;DHT22;38043;53.224;6.580;2023-07-09T06:37:40;23.60;99.70
52030;DHT22;38043;53.224;6.580;2023-07-09T06:40:06;23.80;99.30
52030;DHT22;38043;53.224;6.580;2023-07-09T06:42:35;24.00;99.30
52030;DHT22;38043;53.224;6.580;2023-07-09T06:45:01;24.20;99.00
52030;DHT22;38043;53.224;6.580;2023-07-09T06:47:29;24.30;98.80
52030;DHT22;38043;53.224;6.580;2023-07-09T06:49:54;24.50;98.60
52030;DHT22;38043;53.224;6.580;2023-07-09T06:52:20;24.60;98.50
52030;DHT22;38043;53.224;6.580;2023-07-09T06:54:46;24.70;98.60
52030;DHT22;38043;53.224;6.580;2023-07-09T06:57:11;24.90;98.50
52030;DHT22;38043;53.224;6.580;2023-07-09T06:59:37;25.00;98.20
52030;DHT22;38043;53.224;6.580;2023-07-09T07:02:03;25.10;97.90
52030;DHT22;38043;53.224;6.580;2023-07-09T07:04:29;25.10;97.90
52030;DHT22;38043;53.224;6.580;2023-07-09T07:06:54;25.10;97.70
52030;DHT22;38043;53.224;6.580;2023-07-09T07:09:23;25.10;97.60
52030;DHT22;38043;53.224;6.580;2023-07-09T07:11:49;25.20;97.60
52030;DHT22;38043;53.224;6.580;2023-07-09T07:14:15;25.30;97.60
52030;DHT22;38043;53.224;6.580;2023-07-09T07:16:42;25.50;97.50
52030;DHT22;38043;53.224;6.580;2023-07-09T07:19:07;25.60;97.50
52030;DHT22;38043;53.224;6.580;2023-07-09T07:21:35;25.80;97.70
52030;DHT22;38043;53.224;6.580;2023-07-09T07:24:02;26.00;97.70
52030;DHT22;38043;53.224;6.580;2023-07-09T07:26:29;26.20;97.40
52030;DHT22;38043;53.224;6.580;2023-07-09T07:28:54;26.40;97.30
52030;DHT22;38043;53.224;6.580;2023-07-09T07:31:20;26.60;97.00
52030;DHT22;38043;53.224;6.580;2023-07-09T07:33:45;26.70;96.60
52030;DHT22;38043;53.224;6.580;2023-07-09T07:36:11;26.90;96.40
52030;DHT22;38043;53.224;6.580;2023-07-09T07:38:37;27.00;96.10
52030;DHT22;38043;53.224;6.580;2023-07-09T07:41:03;27.10;96.00
52030;DHT22;38043;53.224;6.580;2023-07-09T07:43:29;27.10;95.90
52030;DHT22;38043;53.224;6.580;2023-07-09T07:45:54;27.10;96.00
52030;DHT22;38043;53.224;6.580;2023-07-09T07:48:20;27.10;95.90
52030;DHT22;38043;53.224;6.580;2023-07-09T07:50:46;27.00;95.60
52030;DHT22;38043;53.224;6.580;2023-07-09T07:53:14;27.00;95.60
52030;DHT22;38043;53.224;6.580;2023-07-09T07:55:41;27.00;95.70
52030;DHT22;38043;53.224;6.580;2023-07-09T07:58:12;26.90;95.80
52030;DHT22;38043;53.224;6.580;2023-07-09T08:00:38;27.00;95.70
52030;DHT22;38043;53.224;6.580;2023-07-09T08:03:04;27.10;95.90
52030;DHT22;38043;53.224;6.580;2023-07-09T08:05:30;27.20;96.00
52030;DHT22;38043;53.224;6.580;2023-07-09T08:07:56;27.40;96.10
52030;DHT22;38043;53.224;6.580;2023-07-09T08:10:22;27.50;96.00
52030;DHT22;38043;53.224;6.580;2023-07-09T08:12:47;27.70;95.90
52030;DHT22;38043;53.224;6.580;2023-07-09T08:15:13;27.80;95.80
52030;DHT22;38043;53.224;6.580;2023-07-09T08:17:39;27.90;95.80
52030;DHT22;38043;53.224;6.580;2023-07-09T08:20:06;28.10;95.40
52030;DHT22;38043;53.224;6.580;2023-07-09T08:22:32;28.20;95.20
52030;DHT22;38043;53.224;6.580;2023-07-09T08:24:57;28.30;95.00
52030;DHT22;38043;53.224;6.580;2023-07-09T08:27:23;28.30;94.80
52030;DHT22;38043;53.224;6.580;2023-07-09T08:29:49;28.40;94.80
52030;DHT22;38043;53.224;6.580;2023-07-09T08:32:15;28.40;94.60
52030;DHT22;38043;53.224;6.580;2023-07-09T08:34:42;28.40;94.70
52030;DHT22;38043;53.224;6.580;2023-07-09T08:37:09;28.50;94.80
52030;DHT22;38043;53.224;6.580;2023-07-09T08:39:35;28.60;94.70
52030;DHT22;38043;53.224;6.580;2023-07-09T08:42:11;28.60;94.80
52030;DHT22;38043;53.224;6.580;2023-07-09T08:50:02;28.80;94.50
52030;DHT22;38043;53.224;6.580;2023-07-09T08:52:33;28.90;94.40
52030;DHT22;38043;53.224;6.580;2023-07-09T08:55:06;29.00;94.50
52030;DHT22;38043;53.224;6.580;2023-07-09T08:57:39;29.20;94.40
52030;DHT22;38043;53.224;6.580;2023-07-09T09:00:15;29.40;93.90
52030;DHT22;38043;53.224;6.580;2023-07-09T09:03:03;29.50;93.70
52030;DHT22;38043;53.224;6.580;2023-07-09T09:05:33;29.60;93.70
52030;DHT22;38043;53.224;6.580;2023-07-09T09:13:12;30.00;93.30
52030;DHT22;38043;53.224;6.580;2023-07-09T09:15:44;30.10;92.10
52030;DHT22;38043;53.224;6.580;2023-07-09T09:20:53;30.10;92.80
52030;DHT22;38043;53.224;6.580;2023-07-09T09:23:21;30.10;92.10
52030;DHT22;38043;53.224;6.580;2023-07-09T09:25:52;30.10;92.10
52030;DHT22;38043;53.224;6.580;2023-07-09T09:28:20;30.00;92.50
52030;DHT22;38043;53.224;6.580;2023-07-09T09:30:48;30.00;92.00
52030;DHT22;38043;53.224;6.580;2023-07-09T09:33:17;30.10;91.70
52030;DHT22;38043;53.224;6.580;2023-07-09T09:35:45;30.00;92.00
52030;DHT22;38043;53.224;6.580;2023-07-09T09:38:11;30.00;92.30
52030;DHT22;38043;53.224;6.580;2023-07-09T09:40:37;30.00;92.80
52030;DHT22;38043;53.224;6.580;2023-07-09T09:43:16;30.10;92.80
52030;DHT22;38043;53.224;6.580;2023-07-09T09:45:44;30.10;92.50
52030;DHT22;38043;53.224;6.580;2023-07-09T09:50:41;30.10;92.50
52030;DHT22;38043;53.224;6.580;2023-07-09T09:53:08;30.10;92.60
52030;DHT22;38043;53.224;6.580;2023-07-09T09:55:39;30.00;92.70
52030;DHT22;38043;53.224;6.580;2023-07-09T09:58:15;30.10;92.60
52030;DHT22;38043;53.224;6.580;2023-07-09T10:00:46;30.20;92.70
52030;DHT22;38043;53.224;6.580;2023-07-09T10:03:13;30.10;92.50
52030;DHT22;38043;53.224;6.580;2023-07-09T10:05:51;30.20;92.20
52030;DHT22;38043;53.224;6.580;2023-07-09T10:08:57;30.10;92.20
52030;DHT22;38043;53.224;6.580;2023-07-09T10:12:09;30.10;92.40
52030;DHT22;38043;53.224;6.580;2023-07-09T10:14:58;30.10;93.00
52030;DHT22;38043;53.224;6.580;2023-07-09T10:22:57;30.10;92.30
52030;DHT22;38043;53.224;6.580;2023-07-09T10:25:53;30.20;92.60
52030;DHT22;38043;53.224;6.580;2023-07-09T10:37:15;30.50;92.00
52030;DHT22;38043;53.224;6.580;2023-07-09T10:39:50;30.40;91.90
52030;DHT22;38043;53.224;6.580;2023-07-09T10:42:29;30.30;91.90
52030;DHT22;38043;53.224;6.580;2023-07-09T10:45:23;30.20;91.50
52030;DHT22;38043;53.224;6.580;2023-07-09T10:47:58;30.20;91.90
52030;DHT22;38043;53.224;6.580;2023-07-09T10:50:32;30.40;92.50
52030;DHT22;38043;53.224;6.580;2023-07-09T10:58:37;30.90;90.80
52030;DHT22;38043;53.224;6.580;2023-07-09T11:01:05;30.90;91.60
52030;DHT22;38043;53.224;6.580;2023-07-09T11:03:52;31.10;91.80
52030;DHT22;38043;53.224;6.580;2023-07-09T11:06:25;31.30;90.70
52030;DHT22;38043;53.224;6.580;2023-07-09T11:08:55;31.30;91.10
52030;DHT22;38043;53.224;6.580;2023-07-09T11:11:38;31.40;91.40
52030;DHT22;38043;53.224;6.580;2023-07-09T11:14:32;31.60;91.20
52030;DHT22;38043;53.224;6.580;2023-07-09T11:16:57;31.70;91.10
52030;DHT22;38043;53.224;6.580;2023-07-09T11:19:24;31.90;90.00
52030;DHT22;38043;53.224;6.580;2023-07-09T11:22:39;31.80;89.60
52030;DHT22;38043;53.224;6.580;2023-07-09T11:25:09;31.80;90.10
52030;DHT22;38043;53.224;6.580;2023-07-09T11:32:46;31.90;88.00
52030;DHT22;38043;53.224;6.580;2023-07-09T11:35:25;31.90;87.70
52030;DHT22;38043;53.224;6.580;2023-07-09T11:37:51;31.80;89.80
52030;DHT22;38043;53.224;6.580;2023-07-09T11:40:19;32.00;88.50
52030;DHT22;38043;53.224;6.580;2023-07-09T11:42:55;31.90;88.80
52030;DHT22;38043;53.224;6.580;2023-07-09T11:45:27;32.00;89.40
52030;DHT22;38043;53.224;6.580;2023-07-09T11:50:44;32.30;88.70
52030;DHT22;38043;53.224;6.580;2023-07-09T11:53:35;32.50;87.40
52030;DHT22;38043;53.224;6.580;2023-07-09T11:56:03;32.40;88.10
52030;DHT22;38043;53.224;6.580;2023-07-09T11:58:29;32.40;88.40
52030;DHT22;38043;53.224;6.580;2023-07-09T12:00:57;32.30;87.60
52030;DHT22;38043;53.224;6.580;2023-07-09T12:03:30;32.20;88.20
52030;DHT22;38043;53.224;6.580;2023-07-09T12:06:17;32.20;88.60
52030;DHT22;38043;53.224;6.580;2023-07-09T12:08:45;32.20;88.70
52030;DHT22;38043;53.224;6.580;2023-07-09T12:11:30;32.40;87.70
52030;DHT22;38043;53.224;6.580;2023-07-09T12:14:05;32.30;88.50
52030;DHT22;38043;53.224;6.580;2023-07-09T12:16:36;32.40;88.10
52030;DHT22;38043;53.224;6.580;2023-07-09T12:19:01;32.60;87.30
52030;DHT22;38043;53.224;6.580;2023-07-09T12:21:29;32.60;87.80
52030;DHT22;38043;53.224;6.580;2023-07-09T12:23:55;32.70;86.60
52030;DHT22;38043;53.224;6.580;2023-07-09T12:26:21;32.60;87.50
52030;DHT22;38043;53.224;6.580;2023-07-09T12:28:56;32.60;87.90
52030;DHT22;38043;53.224;6.580;2023-07-09T12:31:28;32.70;83.30
52030;DHT22;38043;53.224;6.580;2023-07-09T12:33:56;32.70;82.40
52030;DHT22;38043;53.224;6.580;2023-07-09T12:36:24;32.60;82.80
52030;DHT22;38043;53.224;6.580;2023-07-09T12:38:53;32.70;81.90
52030;DHT22;38043;53.224;6.580;2023-07-09T12:43:53;32.60;82.00
52030;DHT22;38043;53.224;6.580;2023-07-09T12:46:20;32.50;81.80
52030;DHT22;38043;53.224;6.580;2023-07-09T12:48:46;32.50;81.40
52030;DHT22;38043;53.224;6.580;2023-07-09T12:51:24;32.50;81.10
52030;DHT22;38043;53.224;6.580;2023-07-09T12:54:09;32.30;81.00
52030;DHT22;38043;53.224;6.580;2023-07-09T12:56:37;32.30;81.10
52030;DHT22;38043;53.224;6.580;2023-07-09T12:59:22;32.20;82.00
52030;DHT22;38043;53.224;6.580;2023-07-09T13:02:02;32.10;82.20
52030;DHT22;38043;53.224;6.580;2023-07-09T13:04:41;32.00;82.90
52030;DHT22;38043;53.224;6.580;2023-07-09T13:07:27;32.00;83.10
52030;DHT22;38043;53.224;6.580;2023-07-09T13:09:55;32.10;83.00
52030;DHT22;38043;53.224;6.580;2023-07-09T13:12:32;32.10;83.50
52030;DHT22;38043;53.224;6.580;2023-07-09T13:14:59;32.00;83.30
52030;DHT22;38043;53.224;6.580;2023-07-09T13:17:29;31.90;84.00
52030;DHT22;38043;53.224;6.580;2023-07-09T13:19:55;31.80;84.40
52030;DHT22;38043;53.224;6.580;2023-07-09T13:22:22;31.70;84.10
52030;DHT22;38043;53.224;6.580;2023-07-09T13:24:48;31.60;84.70
52030;DHT22;38043;53.224;6.580;2023-07-09T13:27:15;31.50;85.70
52030;DHT22;38043;53.224;6.580;2023-07-09T13:29:41;31.60;85.90
52030;DHT22;38043;53.224;6.580;2023-07-09T13:32:13;31.70;85.50
52030;DHT22;38043;53.224;6.580;2023-07-09T13:34:40;31.70;86.40
52030;DHT22;38043;53.224;6.580;2023-07-09T13:37:13;31.80;87.10
52030;DHT22;38043;53.224;6.580;2023-07-09T13:39:40;32.00;84.90
52030;DHT22;38043;53.224;6.580;2023-07-09T13:42:14;32.10;84.70
52030;DHT22;38043;53.224;6.580;2023-07-09T13:44:42;32.10;85.30
52030;DHT22;38043;53.224;6.580;2023-07-09T13:47:16;32.00;85.10
52030;DHT22;38043;53.224;6.580;2023-07-09T13:49:43;32.00;85.00
52030;DHT22;38043;53.224;6.580;2023-07-09T13:52:19;32.00;85.20
52030;DHT22;38043;53.224;6.580;2023-07-09T13:54:46;32.10;86.00
52030;DHT22;38043;53.224;6.580;2023-07-09T13:57:16;32.10;85.00
52030;DHT22;38043;53.224;6.580;2023-07-09T13:59:42;32.10;85.40
52030;DHT22;38043;53.224;6.580;2023-07-09T14:04:42;32.30;85.70
52030;DHT22;38043;53.224;6.580;2023-07-09T14:07:23;32.60;85.60
52030;DHT22;38043;53.224;6.580;2023-07-09T14:09:49;32.70;84.80
52030;DHT22;38043;53.224;6.580;2023-07-09T14:12:15;32.80;83.80
52030;DHT22;38043;53.224;6.580;2023-07-09T14:14:41;32.80;84.10
52030;DHT22;38043;53.224;6.580;2023-07-09T14:17:12;32.80;84.30
52030;DHT22;38043;53.224;6.580;2023-07-09T14:19:38;32.80;84.30
52030;DHT22;38043;53.224;6.580;2023-07-09T14:24:41;33.10;84.60
52030;DHT22;38043;53.224;6.580;2023-07-09T14:27:08;33.30;84.00
52030;DHT22;38043;53.224;6.580;2023-07-09T14:29:34;33.40;83.70
52030;DHT22;38043;53.224;6.580;2023-07-09T14:31:59;33.10;83.90
52030;DHT22;38043;53.224;6.580;2023-07-09T14:34:29;32.60;84.70
52030;DHT22;38043;53.224;6.580;2023-07-09T14:36:57;32.40;84.70
52030;DHT22;38043;53.224;6.580;2023-07-09T14:39:25;32.10;84.80
52030;DHT22;38043;53.224;6.580;2023-07-09T14:41:51;31.70;85.50
52030;DHT22;38043;53.224;6.580;2023-07-09T14:44:27;31.40;85.30
52030;DHT22;38043;53.224;6.580;2023-07-09T14:46:54;31.10;86.20
52030;DHT22;38043;53.224;6.580;2023-07-09T14:49:20;30.80;86.70
52030;DHT22;38043;53.224;6.580;2023-07-09T14:51:47;30.60;87.30
52030;DHT22;38043;53.224;6.580;2023-07-09T14:54:29;30.30;87.60
52030;DHT22;38043;53.224;6.580;2023-07-09T14:56:56;30.20;87.30
52030;DHT22;38043;53.224;6.580;2023-07-09T14:59:23;29.90;87.80
52030;DHT22;38043;53.224;6.580;2023-07-09T15:01:49;29.60;88.50
52030;DHT22;38043;53.224;6.580;2023-07-09T15:06:51;29.20;88.80
52030;DHT22;38043;53.224;6.580;2023-07-09T15:09:20;28.90;89.20
52030;DHT22;38043;53.224;6.580;2023-07-09T15:11:47;28.70;87.90
52030;DHT22;38043;53.224;6.580;2023-07-09T15:14:15;28.50;88.60
52030;DHT22;38043;53.224;6.580;2023-07-09T15:16:40;28.40;90.10
52030;DHT22;38043;53.224;6.580;2023-07-09T15:19:14;28.10;91.00
52030;DHT22;38043;53.224;6.580;2023-07-09T15:21:40;27.90;91.60
52030;DHT22;38043;53.224;6.580;2023-07-09T15:24:16;27.50;91.20
52030;DHT22;38043;53.224;6.580;2023-07-09T15:26:52;27.10;91.00
52030;DHT22;38043;53.224;6.580;2023-07-09T15:29:19;26.60;91.10
52030;DHT22;38043;53.224;6.580;2023-07-09T15:31:45;26.30;90.70
52030;DHT22;38043;53.224;6.580;2023-07-09T15:34:10;26.00;91.30
52030;DHT22;38043;53.224;6.580;2023-07-09T15:36:37;25.70;91.60
52030;DHT22;38043;53.224;6.580;2023-07-09T15:39:03;25.40;91.70
52030;DHT22;38043;53.224;6.580;2023-07-09T15:41:28;25.20;92.00
52030;DHT22;38043;53.224;6.580;2023-07-09T15:43:54;25.10;93.00
52030;DHT22;38043;53.224;6.580;2023-07-09T15:46:21;24.70;94.00
52030;DHT22;38043;53.224;6.580;2023-07-09T15:48:50;24.30;94.90
52030;DHT22;38043;53.224;6.580;2023-07-09T15:51:16;23.90;96.60
52030;DHT22;38043;53.224;6.580;2023-07-09T15:53:41;23.70;96.70
52030;DHT22;38043;53.224;6.580;2023-07-09T15:56:22;23.50;96.80
52030;DHT22;38043;53.224;6.580;2023-07-09T15:58:49;23.20;99.90
52030;DHT22;38043;53.224;6.580;2023-07-09T16:01:16;23.00;99.90
52030;DHT22;38043;53.224;6.580;2023-07-09T16:03:46;22.80;99.90
52030;DHT22;38043;53.224;6.580;2023-07-09T16:06:13;22.60;99.90
52030;DHT22;38043;53.224;6.580;2023-07-09T16:08:39;22.40;99.90
52030;DHT22;38043;53.224;6.580;2023-07-09T16:11:16;22.30;99.90
52030;DHT22;38043;53.224;6.580;2023-07-09T16:13:42;21.70;99.90
52030;DHT22;38043;53.224;6.580;2023-07-09T16:16:20;21.20;99.90
52030;DHT22;38043;53.224;6.580;2023-07-09T16:18:46;20.80;99.90
52030;DHT22;38043;53.224;6.580;2023-07-09T16:21:22;20.50;99.90
52030;DHT22;38043;53.224;6.580;2023-07-09T16:23:48;20.40;99.90
52030;DHT22;38043;53.224;6.580;2023-07-09T16:26:14;20.10;99.90
52030;DHT22;38043;53.224;6.580;2023-07-09T16:28:40;20.00;99.90
52030;DHT22;38043;53.224;6.580;2023-07-09T16:31:05;19.80;99.90
52030;DHT22;38043;53.224;6.580;2023-07-09T16:33:32;19.70;99.90
52030;DHT22;38043;53.224;6.580;2023-07-09T16:35:57;19.60;99.90
52030;DHT22;38043;53.224;6.580;2023-07-09T16:38:23;19.60;99.90
52030;DHT22;38043;53.224;6.580;2023-07-09T16:40:49;19.50;99.90
52030;DHT22;38043;53.224;6.580;2023-07-09T16:43:17;19.50;99.90
52030;DHT22;38043;53.224;6.580;2023-07-09T16:45:44;19.40;99.90